createdAt,value
2018-01-28T00:01:59.847Z,13.63
2018-01-28T00:07:04.299Z,15.37
2018-01-28T00:12:06.983Z,15.37
2018-01-28T00:17:10.573Z,13.43
2018-01-28T00:22:14.698Z,9.30
2018-01-28T00:27:17.968Z,14.50
2018-01-28T00:32:20.642Z,14.60
2018-01-28T00:37:24.242Z,12.53
2018-01-28T00:42:26.916Z,12.53
2018-01-28T00:47:30.338Z,11.00
2018-01-28T00:52:33.065Z,14.67
2018-01-28T00:57:35.878Z,14.20
2018-01-28T01:02:38.645Z,9.80
2018-01-28T01:07:42.026Z,12.23
2018-01-28T01:12:44.786Z,11.43
2018-01-28T01:17:48.439Z,11.83
2018-01-28T01:22:51.871Z,11.20
2018-01-28T01:27:55.096Z,11.27
2018-01-28T01:32:57.812Z,8.93
2018-01-28T01:38:01.292Z,11.40
2018-01-28T01:43:04.816Z,8.40
2018-01-28T01:48:08.038Z,8.57
2018-01-28T01:53:10.938Z,8.57
2018-01-28T01:58:14.045Z,7.53
2018-01-28T02:03:16.802Z,9.10
2018-01-28T02:08:20.121Z,8.50
2018-01-28T02:13:22.801Z,8.67
2018-01-28T02:18:26.470Z,5.43
2018-01-28T02:23:29.895Z,8.13
2018-01-28T02:28:33.117Z,8.87
2018-01-28T02:33:35.792Z,6.57
2018-01-28T02:38:40.154Z,7.03
2018-01-28T02:43:42.798Z,7.13
2018-01-28T02:48:45.513Z,7.13
2018-01-28T02:53:48.216Z,8.17
2018-01-28T02:58:51.384Z,7.10
2018-01-28T03:03:54.042Z,7.30
2018-01-28T03:08:57.914Z,7.10
2018-01-28T03:14:00.585Z,8.10
2018-01-28T03:19:04.056Z,9.13
2018-01-28T03:24:06.774Z,7.57
2018-01-28T03:29:09.819Z,7.73
2018-01-28T03:34:12.572Z,8.00
2018-01-28T03:39:15.383Z,8.37
2018-01-28T03:44:18.154Z,8.37
2018-01-28T03:49:21.262Z,8.63
2018-01-28T03:54:23.911Z,7.57
2018-01-28T03:59:27.789Z,5.93
2018-01-28T04:04:30.450Z,6.37
2018-01-28T04:09:34.445Z,8.93
2018-01-28T04:14:37.130Z,8.17
2018-01-28T04:19:40.550Z,8.47
2018-01-28T04:24:43.252Z,7.83
2018-01-28T04:29:46.497Z,6.20
2018-01-28T04:34:49.962Z,7.60
2018-01-28T04:39:53.582Z,6.00
2018-01-28T04:44:56.247Z,7.33
2018-01-28T04:50:00.186Z,5.70
2018-01-28T04:55:02.862Z,6.77
2018-01-28T05:00:06.648Z,4.87
2018-01-28T05:05:09.287Z,6.27
2018-01-28T05:10:12.013Z,4.73
2018-01-28T05:15:14.657Z,6.00
2018-01-28T05:20:17.390Z,5.53
2018-01-28T05:25:20.056Z,4.33
2018-01-28T05:30:23.252Z,4.97
2018-01-28T05:35:25.884Z,6.00
2018-01-28T05:40:29.398Z,5.50
2018-01-28T05:45:32.063Z,5.33
2018-01-28T05:50:34.830Z,4.47
2018-01-28T05:55:38.251Z,6.83
2018-01-28T06:00:42.198Z,5.87
2018-01-28T06:05:44.844Z,7.00
2018-01-28T06:10:47.494Z,6.60
2018-01-28T06:15:50.094Z,7.03
2018-01-28T06:20:53.594Z,7.03
2018-01-28T06:25:57.026Z,7.37
2018-01-28T06:31:00.033Z,5.83
2018-01-28T06:36:02.715Z,6.90
2018-01-28T06:41:06.811Z,6.60
2018-01-28T06:46:09.488Z,7.20
2018-01-28T06:51:12.394Z,6.60
2018-01-28T06:56:15.046Z,5.17
2018-01-28T07:01:19.063Z,4.93
2018-01-28T07:06:21.724Z,5.57
2018-01-28T07:11:25.331Z,7.83
2018-01-28T07:16:28.086Z,6.67
2018-01-28T07:21:31.610Z,6.10
2018-01-28T07:26:34.243Z,7.97
2018-01-28T07:31:37.864Z,7.80
2018-01-28T07:36:40.505Z,7.00
2018-01-28T07:41:43.938Z,6.90
2018-01-28T07:46:46.675Z,6.53
2018-01-28T07:51:50.843Z,8.00
2018-01-28T07:56:53.535Z,8.13
2018-01-28T08:01:56.534Z,6.77
2018-01-28T08:06:59.256Z,8.17
2018-01-28T08:12:05.549Z,7.03
2018-01-28T08:17:08.265Z,5.33
2018-01-28T08:22:11.190Z,5.60
2018-01-28T08:32:54.578Z,3.73
2018-01-28T08:37:58.023Z,5.10
2018-01-28T08:43:00.707Z,5.17
2018-01-28T08:48:04.961Z,5.43
2018-01-28T08:53:07.651Z,5.60
2018-01-28T08:58:11.359Z,5.23
2018-01-28T09:03:14.048Z,6.23
2018-01-28T09:08:17.607Z,8.33
2018-01-28T09:13:20.362Z,4.83
2018-01-28T09:18:23.857Z,4.63
2018-01-28T09:23:26.650Z,4.67
2018-01-28T09:28:29.859Z,4.53
2018-01-28T09:33:32.569Z,5.10
2018-01-28T09:38:36.454Z,3.93
2018-01-28T09:43:39.861Z,3.90
2018-01-28T09:48:43.432Z,3.40
2018-01-28T09:53:46.171Z,3.40
2018-01-28T09:58:49.170Z,3.37
2018-01-28T10:03:51.834Z,4.10
2018-01-28T10:08:55.366Z,3.67
2018-01-28T10:13:58.266Z,2.83
2018-01-28T10:19:01.568Z,3.30
2018-01-28T10:24:04.188Z,4.47
2018-01-28T10:29:07.603Z,3.60
2018-01-28T10:34:10.394Z,3.30
2018-01-28T10:39:13.646Z,2.50
2018-01-28T10:44:16.449Z,3.83
2018-01-28T10:49:19.663Z,3.50
2018-01-28T10:54:22.437Z,3.53
2018-01-28T10:59:25.900Z,3.40
2018-01-28T11:04:29.336Z,3.33
2018-01-28T11:09:32.634Z,2.87
2018-01-28T11:14:35.495Z,3.77
2018-01-28T11:19:39.114Z,3.87
2018-01-28T11:24:41.750Z,4.40
2018-01-28T11:29:45.018Z,3.87
2018-01-28T11:34:47.902Z,3.07
2018-01-28T11:39:51.009Z,3.00
2018-01-28T11:44:53.693Z,3.37
2018-01-28T11:49:57.018Z,3.07
2018-01-28T11:55:00.584Z,3.20
2018-01-28T12:00:03.952Z,2.87
2018-01-28T12:05:06.967Z,3.33
2018-01-28T12:10:11.021Z,5.13
2018-01-28T12:15:13.801Z,3.57
2018-01-28T12:20:17.123Z,2.93
2018-01-28T12:25:20.016Z,2.97
2018-01-28T12:30:24.385Z,3.00
2018-01-28T12:35:27.084Z,2.27
2018-01-28T12:40:30.183Z,2.60
2018-01-28T12:45:33.119Z,2.10
2018-01-28T12:50:35.981Z,2.50
2018-01-28T12:55:39.833Z,1.90
2018-01-28T13:00:43.053Z,1.90
2018-01-28T13:05:45.761Z,2.10
2018-01-28T13:10:49.678Z,2.37
2018-01-28T13:15:52.448Z,2.33
2018-01-28T13:20:55.489Z,2.50
2018-01-28T13:25:58.172Z,2.23
2018-01-28T13:31:01.466Z,2.83
2018-01-28T13:36:04.104Z,2.20
2018-01-28T13:41:07.411Z,2.50
2018-01-28T13:46:10.092Z,2.00
2018-01-28T13:51:14.113Z,1.97
2018-01-28T13:56:16.766Z,1.87
2018-01-28T14:01:19.491Z,2.00
2018-01-28T14:06:22.175Z,2.50
2018-01-28T14:11:25.385Z,1.97
2018-01-28T14:16:28.130Z,1.80
2018-01-28T14:21:31.309Z,1.83
2018-01-28T14:26:33.948Z,2.10
2018-01-28T14:31:37.410Z,2.07
2018-01-28T14:36:40.096Z,1.80
2018-01-28T14:41:43.420Z,1.77
2018-01-28T14:46:46.071Z,2.07
2018-01-28T14:51:49.056Z,2.50
2018-01-28T14:56:51.717Z,1.93
2018-01-28T15:01:54.831Z,1.97
2018-01-28T15:06:57.487Z,2.40
2018-01-28T15:12:01.003Z,2.40
2018-01-28T15:17:04.528Z,1.80
2018-01-28T15:22:08.230Z,2.60
2018-01-28T15:27:11.679Z,2.00
2018-01-28T15:32:14.409Z,2.20
2018-01-28T15:37:17.120Z,2.67
2018-01-28T15:42:19.974Z,2.07
2018-01-28T15:47:22.692Z,2.20
2018-01-28T15:52:26.222Z,2.40
2018-01-28T15:57:28.840Z,2.60
2018-01-28T16:02:31.801Z,2.50
2018-01-28T16:07:34.529Z,2.60
2018-01-28T16:12:38.331Z,2.17
2018-01-28T16:17:41.118Z,3.00
2018-01-28T16:22:44.193Z,3.03
2018-01-28T16:27:47.286Z,2.17
2018-01-28T16:32:50.981Z,2.50
2018-01-28T16:37:53.736Z,2.53
2018-01-28T16:42:57.401Z,3.07
2018-01-28T16:48:00.321Z,2.37
2018-01-28T16:53:03.416Z,2.30
2018-01-28T16:58:06.436Z,2.43
2018-01-28T17:03:09.306Z,2.40
2018-01-28T17:08:11.995Z,2.43
2018-01-28T17:13:14.956Z,2.50
2018-01-28T17:18:17.606Z,2.70
2018-01-28T17:23:21.477Z,2.20
2018-01-28T17:28:24.081Z,2.57
2018-01-28T17:33:27.654Z,2.30
2018-01-28T17:38:31.063Z,2.53
2018-01-28T17:43:34.202Z,2.13
2018-01-28T17:48:37.007Z,2.67
2018-01-28T17:53:42.265Z,2.43
2018-01-28T17:58:44.882Z,2.27
2018-01-28T18:03:48.692Z,2.73
2018-01-28T18:14:16.083Z,2.50
2018-01-28T18:19:19.816Z,3.07
2018-01-28T18:24:23.365Z,3.50
2018-01-28T18:29:26.119Z,2.87
2018-01-28T18:34:29.744Z,2.83
2018-01-28T18:39:33.201Z,6.87
2018-01-28T18:44:36.716Z,3.20
2018-01-28T18:49:39.340Z,3.17
2018-01-28T18:54:42.406Z,2.80
2018-01-28T18:59:45.185Z,2.73
2018-01-28T19:04:48.356Z,2.87
2018-01-28T19:09:51.040Z,2.77
2018-01-28T19:14:54.502Z,2.67
2018-01-28T19:19:57.335Z,3.50
2018-01-28T19:25:00.945Z,2.90
2018-01-28T19:30:05.927Z,2.77
2018-01-28T19:35:09.057Z,3.27
2018-01-28T19:40:11.797Z,5.20
2018-01-28T19:45:14.636Z,3.43
2018-01-28T19:50:18.868Z,2.83
2018-01-28T19:55:23.211Z,3.70
2018-01-28T20:00:26.795Z,3.40
2018-01-28T20:05:30.075Z,3.80
2018-01-28T20:10:32.753Z,3.70
2018-01-28T20:15:35.742Z,4.00
2018-01-28T20:20:39.199Z,4.53
2018-01-28T20:25:42.459Z,3.40
2018-01-28T20:30:45.100Z,2.60
2018-01-28T20:35:48.468Z,3.70
2018-01-28T20:40:51.141Z,3.37
2018-01-28T20:45:54.297Z,2.10
2018-01-28T20:50:57.111Z,3.03
2018-01-28T20:56:00.951Z,3.30
2018-01-28T21:01:05.255Z,2.77
2018-01-28T21:06:09.734Z,2.47
2018-01-28T21:11:12.448Z,2.60
2018-01-28T21:16:15.501Z,2.60
2018-01-28T21:21:18.223Z,2.37
2018-01-28T21:26:21.942Z,2.80
2018-01-28T21:31:25.525Z,3.23
2018-01-28T21:36:28.535Z,2.40
2018-01-28T21:41:31.823Z,2.27
2018-01-28T21:46:34.941Z,2.40
2018-01-28T21:51:37.742Z,2.83
2018-01-28T21:56:41.365Z,2.67
2018-01-28T22:01:45.313Z,2.90
2018-01-28T22:06:48.322Z,3.10
2018-01-28T22:11:51.883Z,2.50
2018-01-28T22:16:56.345Z,2.87
2018-01-28T22:21:59.008Z,2.40
2018-01-28T22:27:01.806Z,2.50
2018-01-28T22:32:05.481Z,2.67
2018-01-28T22:37:08.672Z,2.20
2018-01-28T22:42:11.373Z,2.23
2018-01-28T22:47:14.609Z,2.33
2018-01-28T22:52:17.283Z,2.50
2018-01-28T22:57:21.481Z,2.23
2018-01-28T23:02:24.191Z,2.40
2018-01-28T23:07:27.875Z,2.30
2018-01-28T23:12:30.595Z,2.47
2018-01-28T23:17:33.772Z,2.40
2018-01-28T23:22:36.468Z,3.00
2018-01-28T23:27:40.197Z,2.90
2018-01-28T23:32:43.645Z,3.20
2018-01-28T23:37:47.382Z,3.40
2018-01-28T23:42:51.216Z,3.07
2018-01-28T23:47:54.367Z,3.20
2018-01-28T23:52:57.065Z,2.90
2018-01-28T23:58:01.207Z,3.23
